createdAt,value
2022-10-27T00:19:43.763Z,99.90
2022-10-27T00:22:10.470Z,99.90
2022-10-27T00:24:37.177Z,99.90
2022-10-27T00:27:03.949Z,99.90
2022-10-27T00:29:30.621Z,99.90
2022-10-27T00:31:57.266Z,99.90
2022-10-27T00:34:23.968Z,99.90
2022-10-27T00:36:50.681Z,99.90
2022-10-27T00:39:17.370Z,99.90
2022-10-27T00:41:45.480Z,99.90
2022-10-27T00:44:33.232Z,99.90
2022-10-27T00:47:04.266Z,99.90
2022-10-27T00:49:38.229Z,99.90
2022-10-27T00:52:10.109Z,99.90
2022-10-27T00:54:41.310Z,99.90
2022-10-27T00:57:10.266Z,99.90
2022-10-27T00:59:38.139Z,99.90
2022-10-27T01:02:06.867Z,99.90
2022-10-27T01:04:49.910Z,99.90
2022-10-27T01:07:18.609Z,99.90
2022-10-27T01:09:46.606Z,99.90
2022-10-27T01:12:13.321Z,99.90
2022-10-27T01:14:40.189Z,99.90
2022-10-27T01:17:24.244Z,99.90
2022-10-27T01:20:15.114Z,99.90
2022-10-27T01:22:52.389Z,99.90
2022-10-27T01:25:38.184Z,99.90
2022-10-27T01:28:16.942Z,99.90
2022-10-27T01:31:13.260Z,99.90
2022-10-27T01:33:58.774Z,99.90
2022-10-27T01:36:38.001Z,99.90
2022-10-27T01:39:23.788Z,99.90
2022-10-27T01:41:56.316Z,99.90
2022-10-27T01:44:28.829Z,99.90
2022-10-27T01:46:57.105Z,99.90
2022-10-27T01:49:24.026Z,99.90
2022-10-27T01:51:50.744Z,99.90
2022-10-27T01:54:20.505Z,99.90
2022-10-27T01:57:02.184Z,99.90
2022-10-27T01:59:53.846Z,99.90
2022-10-27T02:02:26.649Z,99.90
2022-10-27T02:04:58.948Z,99.90
2022-10-27T02:07:46.187Z,99.90
2022-10-27T02:10:27.600Z,99.90
2022-10-27T02:12:56.725Z,99.90
2022-10-27T02:15:51.867Z,99.90
2022-10-27T02:18:25.163Z,99.90
2022-10-27T02:20:55.864Z,99.90
2022-10-27T02:23:22.975Z,99.90
2022-10-27T02:26:03.001Z,99.90
2022-10-27T02:28:40.437Z,99.90
2022-10-27T02:31:08.917Z,99.90
2022-10-27T02:33:36.293Z,99.90
2022-10-27T02:36:03.148Z,99.90
2022-10-27T02:38:29.809Z,99.90
2022-10-27T02:40:56.524Z,99.90
2022-10-27T02:43:23.215Z,99.90
2022-10-27T02:45:49.842Z,99.90
2022-10-27T02:48:16.511Z,99.90
2022-10-27T02:50:43.239Z,99.90
2022-10-27T02:53:09.990Z,99.90
2022-10-27T02:55:36.665Z,99.90
2022-10-27T02:58:03.329Z,99.90
2022-10-27T03:00:29.970Z,99.90
2022-10-27T03:02:56.739Z,99.90
2022-10-27T03:05:23.425Z,99.90
2022-10-27T03:07:50.084Z,99.90
2022-10-27T03:10:16.846Z,99.90
2022-10-27T03:12:47.394Z,99.90
2022-10-27T03:15:14.736Z,99.90
2022-10-27T03:17:48.590Z,99.90
2022-10-27T03:20:16.575Z,99.90
2022-10-27T03:22:43.268Z,99.90
2022-10-27T03:25:11.747Z,99.90
2022-10-27T03:27:43.709Z,99.90
2022-10-27T03:30:16.284Z,99.90
2022-10-27T03:32:47.855Z,99.90
2022-10-27T03:35:15.725Z,99.90
2022-10-27T03:37:42.465Z,99.90
2022-10-27T03:40:09.672Z,99.90
2022-10-27T03:42:43.556Z,99.90
2022-10-27T03:45:11.932Z,99.90
2022-10-27T03:47:38.628Z,99.90
2022-10-27T03:50:06.302Z,99.90
2022-10-27T03:52:33.556Z,99.90
2022-10-27T03:55:00.383Z,99.90
2022-10-27T03:57:27.139Z,99.90
2022-10-27T03:59:53.771Z,99.90
2022-10-27T04:02:20.622Z,99.90
2022-10-27T04:04:47.336Z,99.90
2022-10-27T04:07:13.975Z,99.90
2022-10-27T04:09:40.651Z,99.90
2022-10-27T04:12:07.553Z,99.90
2022-10-27T04:14:34.260Z,99.90
2022-10-27T04:17:00.938Z,99.90
2022-10-27T04:19:27.563Z,99.90
2022-10-27T04:21:54.473Z,99.90
2022-10-27T04:24:21.203Z,99.90
2022-10-27T04:26:48.841Z,99.90
2022-10-27T04:29:15.533Z,99.90
2022-10-27T04:31:42.187Z,99.90
2022-10-27T04:34:08.965Z,99.90
2022-10-27T04:36:35.651Z,99.90
2022-10-27T04:39:02.304Z,99.90
2022-10-27T04:41:29.028Z,99.90
2022-10-27T04:43:55.702Z,99.90
2022-10-27T04:46:23.041Z,99.90
2022-10-27T04:48:49.665Z,99.90
2022-10-27T04:51:19.303Z,99.90
2022-10-27T04:53:48.989Z,99.90
2022-10-27T04:56:16.069Z,99.90
2022-10-27T04:58:42.989Z,99.90
2022-10-27T05:01:14.257Z,99.90
2022-10-27T05:03:41.525Z,99.90
2022-10-27T05:06:08.371Z,99.90
2022-10-27T05:08:35.038Z,99.90
2022-10-27T05:11:01.722Z,99.90
2022-10-27T05:13:28.369Z,99.90
2022-10-27T05:16:03.004Z,99.90
2022-10-27T05:18:30.515Z,99.90
2022-10-27T05:20:57.318Z,99.90
2022-10-27T05:23:24.133Z,99.90
2022-10-27T05:25:52.700Z,99.90
2022-10-27T05:28:20.084Z,99.90
2022-10-27T05:30:47.010Z,99.90
2022-10-27T05:33:14.099Z,99.90
2022-10-27T05:35:41.004Z,99.90
2022-10-27T05:38:07.948Z,99.90
2022-10-27T05:40:34.699Z,99.90
2022-10-27T05:43:03.115Z,99.90
2022-10-27T05:45:30.451Z,99.90
2022-10-27T05:48:07.765Z,99.90
2022-10-27T05:50:35.097Z,99.90
2022-10-27T05:53:02.227Z,99.90
2022-10-27T05:55:29.194Z,99.90
2022-10-27T05:57:58.351Z,99.90
2022-10-27T06:00:27.022Z,99.90
2022-10-27T06:02:57.393Z,99.90
2022-10-27T06:05:28.257Z,99.90
2022-10-27T06:07:55.415Z,99.90
2022-10-27T06:10:22.372Z,99.90
2022-10-27T06:12:49.039Z,99.90
2022-10-27T06:15:16.064Z,99.90
2022-10-27T06:17:42.800Z,99.90
2022-10-27T06:20:10.087Z,99.90
2022-10-27T06:22:36.739Z,99.90
2022-10-27T06:25:03.572Z,99.90
2022-10-27T06:27:31.344Z,99.90
2022-10-27T06:29:58.064Z,99.90
2022-10-27T06:34:52.472Z,99.90
2022-10-27T06:37:19.302Z,99.90
2022-10-27T06:39:46.750Z,99.90
2022-10-27T06:42:13.758Z,99.90
2022-10-27T06:44:40.466Z,99.90
2022-10-27T06:47:07.146Z,99.90
2022-10-27T06:49:33.831Z,99.90
2022-10-27T06:52:00.687Z,99.90
2022-10-27T06:54:27.392Z,99.90
2022-10-27T06:56:54.112Z,99.90
2022-10-27T06:59:20.832Z,99.90
2022-10-27T07:01:47.748Z,99.90
2022-10-27T07:04:14.744Z,99.90
2022-10-27T07:06:41.566Z,99.90
2022-10-27T07:09:09.892Z,99.90
2022-10-27T07:11:37.280Z,99.90
2022-10-27T07:14:04.770Z,99.90
2022-10-27T07:16:34.812Z,99.90
2022-10-27T07:19:02.402Z,99.90
2022-10-27T07:21:29.384Z,99.90
2022-10-27T07:23:56.143Z,99.90
2022-10-27T07:26:22.962Z,99.90
2022-10-27T07:28:49.642Z,99.90
2022-10-27T07:31:16.424Z,99.90
2022-10-27T07:33:43.115Z,99.90
2022-10-27T07:36:10.002Z,99.90
2022-10-27T07:38:36.770Z,99.90
2022-10-27T07:41:03.589Z,99.90
2022-10-27T07:43:30.326Z,99.90
2022-10-27T07:45:57.048Z,99.90
2022-10-27T07:48:23.760Z,99.90
2022-10-27T07:50:52.125Z,99.90
2022-10-27T07:53:19.455Z,99.90
2022-10-27T07:55:46.164Z,99.90
2022-10-27T07:58:15.493Z,99.90
2022-10-27T08:00:47.511Z,99.90
2022-10-27T08:03:17.646Z,99.90
2022-10-27T08:05:44.442Z,99.90
2022-10-27T08:08:12.084Z,99.90
2022-10-27T08:10:40.717Z,99.90
2022-10-27T08:13:08.648Z,99.90
2022-10-27T08:15:36.458Z,99.90
2022-10-27T08:18:04.217Z,99.90
2022-10-27T08:20:32.688Z,99.90
2022-10-27T08:23:01.116Z,99.90
2022-10-27T08:25:28.404Z,99.90
2022-10-27T08:27:56.074Z,99.90
2022-10-27T08:30:24.234Z,99.90
2022-10-27T08:32:55.130Z,99.90
2022-10-27T08:35:22.059Z,99.90
2022-10-27T08:37:48.858Z,99.90
2022-10-27T08:40:16.034Z,99.90
2022-10-27T08:43:03.165Z,99.90
2022-10-27T08:45:34.757Z,99.90
2022-10-27T08:48:01.919Z,99.90
2022-10-27T08:50:33.555Z,99.90
2022-10-27T08:53:05.777Z,99.90
2022-10-27T08:55:57.681Z,99.90
2022-10-27T08:58:47.901Z,99.90
2022-10-27T09:01:27.813Z,99.90
2022-10-27T09:04:18.972Z,99.90
2022-10-27T09:07:10.092Z,99.90
2022-10-27T09:09:42.740Z,99.90
2022-10-27T09:12:15.597Z,99.90
2022-10-27T09:15:14.326Z,99.90
2022-10-27T09:17:50.491Z,99.90
2022-10-27T09:20:20.263Z,99.90
2022-10-27T09:22:50.388Z,99.90
2022-10-27T09:25:20.587Z,99.90
2022-10-27T09:27:53.284Z,99.90
2022-10-27T09:30:20.735Z,99.90
2022-10-27T09:32:54.397Z,99.90
2022-10-27T09:35:25.062Z,99.90
2022-10-27T09:37:57.815Z,99.90
2022-10-27T09:40:26.113Z,99.90
2022-10-27T09:42:55.582Z,99.90
2022-10-27T09:45:24.899Z,99.90
2022-10-27T09:47:55.703Z,99.90
2022-10-27T09:51:01.205Z,99.90
2022-10-27T09:53:44.831Z,99.90
2022-10-27T09:56:38.507Z,99.90
2022-10-27T09:59:06.983Z,99.90
2022-10-27T10:01:39.665Z,99.90
2022-10-27T10:04:16.529Z,99.90
2022-10-27T10:06:43.326Z,99.90
2022-10-27T10:09:25.605Z,99.90
2022-10-27T10:12:11.431Z,99.90
2022-10-27T10:14:38.088Z,99.90
2022-10-27T10:17:04.811Z,99.90
2022-10-27T10:19:31.626Z,99.90
2022-10-27T10:22:00.346Z,99.90
2022-10-27T10:24:30.092Z,99.90
2022-10-27T10:26:59.388Z,99.90
2022-10-27T10:29:45.109Z,99.90
2022-10-27T10:32:31.189Z,99.90
2022-10-27T10:35:00.618Z,99.90
2022-10-27T10:37:32.504Z,99.90
2022-10-27T10:40:14.675Z,99.90
2022-10-27T10:42:45.530Z,99.90
2022-10-27T10:45:26.081Z,99.90
2022-10-27T10:47:59.866Z,99.90
2022-10-27T10:50:28.227Z,99.90
2022-10-27T10:52:57.670Z,99.90
2022-10-27T10:55:34.927Z,99.90
2022-10-27T10:58:02.428Z,99.60
2022-10-27T11:00:29.859Z,99.40
2022-10-27T11:03:06.187Z,99.40
2022-10-27T11:05:35.451Z,98.80
2022-10-27T11:08:04.589Z,98.90
2022-10-27T11:10:39.005Z,98.80
2022-10-27T11:13:15.471Z,98.50
2022-10-27T11:15:55.768Z,98.40
2022-10-27T11:18:29.730Z,98.60
2022-10-27T11:21:02.430Z,98.60
2022-10-27T11:23:43.544Z,98.70
2022-10-27T11:26:11.949Z,98.20
2022-10-27T11:29:10.510Z,98.30
2022-10-27T11:31:41.322Z,98.10
2022-10-27T11:34:18.946Z,98.00
2022-10-27T11:36:51.644Z,97.70
2022-10-27T11:39:31.351Z,97.70
2022-10-27T11:42:17.229Z,97.50
2022-10-27T11:44:47.192Z,97.30
2022-10-27T11:47:19.730Z,96.90
2022-10-27T11:49:53.028Z,96.10
2022-10-27T11:52:25.825Z,96.50
2022-10-27T11:54:53.568Z,96.30
2022-10-27T11:57:39.462Z,95.90
2022-10-27T12:00:15.454Z,95.30
2022-10-27T12:03:01.084Z,95.30
2022-10-27T12:06:03.807Z,95.00
2022-10-27T12:08:59.054Z,94.80
2022-10-27T12:11:31.615Z,94.70
2022-10-27T12:14:16.917Z,94.50
2022-10-27T12:16:52.115Z,93.80
2022-10-27T12:19:29.960Z,93.80
2022-10-27T12:22:10.223Z,93.50
2022-10-27T12:24:58.263Z,93.20
2022-10-27T12:27:35.861Z,93.10
2022-10-27T12:30:10.343Z,92.90
2022-10-27T12:32:40.458Z,92.70
2022-10-27T12:35:25.016Z,92.30
2022-10-27T12:38:06.438Z,91.60
2022-10-27T12:40:39.130Z,91.80
2022-10-27T12:43:11.695Z,91.50
2022-10-27T12:46:03.438Z,91.20
2022-10-27T12:48:33.374Z,91.40
2022-10-27T12:51:02.901Z,90.90
2022-10-27T12:53:41.448Z,90.60
2022-10-27T12:56:24.003Z,90.50
2022-10-27T12:59:09.049Z,90.50
2022-10-27T13:02:09.997Z,90.10
2022-10-27T13:04:53.586Z,90.00
2022-10-27T13:07:26.268Z,89.70
2022-10-27T13:10:36.819Z,89.00
2022-10-27T13:13:43.886Z,88.10
2022-10-27T13:16:19.800Z,87.40
2022-10-27T13:19:01.415Z,87.70
2022-10-27T13:21:44.711Z,87.60
2022-10-27T13:24:35.362Z,87.50
2022-10-27T13:27:28.134Z,86.50
2022-10-27T13:30:01.052Z,87.00
2022-10-27T13:32:30.275Z,86.60
2022-10-27T13:35:02.820Z,85.90
2022-10-27T13:37:50.137Z,86.50
2022-10-27T13:40:38.390Z,86.00
2022-10-27T13:43:23.267Z,85.50
2022-10-27T13:45:55.016Z,85.80
2022-10-27T13:48:21.724Z,85.30
2022-10-27T13:53:23.036Z,84.90
2022-10-27T13:55:58.486Z,84.40
2022-10-27T13:58:50.111Z,85.00
2022-10-27T14:01:46.154Z,85.70
2022-10-27T14:04:25.322Z,86.20
2022-10-27T14:07:01.083Z,86.70
2022-10-27T14:09:34.013Z,87.60
2022-10-27T14:12:17.934Z,87.50
2022-10-27T14:14:49.748Z,88.40
2022-10-27T14:17:23.528Z,88.80
2022-10-27T14:20:07.341Z,88.60
2022-10-27T14:22:37.119Z,89.30
2022-10-27T14:25:17.673Z,89.90
2022-10-27T14:27:45.175Z,90.10
2022-10-27T14:30:19.122Z,90.30
2022-10-27T14:32:46.065Z,90.40
2022-10-27T14:35:30.985Z,90.60
2022-10-27T14:37:58.012Z,91.00
2022-10-27T14:40:39.439Z,91.00
2022-10-27T14:43:23.761Z,91.00
2022-10-27T14:45:57.905Z,91.10
2022-10-27T14:48:28.764Z,91.10
2022-10-27T14:50:57.186Z,91.20
2022-10-27T14:53:29.852Z,91.50
2022-10-27T14:56:04.059Z,91.60
2022-10-27T14:58:30.799Z,91.70
2022-10-27T15:00:57.492Z,91.90
2022-10-27T15:03:32.581Z,91.70
2022-10-27T15:05:59.937Z,91.60
2022-10-27T15:08:35.120Z,91.70
2022-10-27T15:11:06.728Z,91.80
2022-10-27T15:13:34.049Z,92.00
2022-10-27T15:16:07.790Z,92.10
2022-10-27T15:18:40.729Z,92.40
2022-10-27T15:21:12.813Z,92.70
2022-10-27T15:23:42.166Z,93.00
2022-10-27T15:26:35.536Z,93.30
2022-10-27T15:29:03.825Z,93.70
2022-10-27T15:31:40.023Z,93.90
2022-10-27T15:34:28.605Z,94.20
2022-10-27T15:37:14.105Z,94.40
2022-10-27T15:39:41.268Z,94.60
2022-10-27T15:42:37.008Z,94.90
2022-10-27T15:45:47.283Z,95.40
2022-10-27T15:48:25.920Z,95.70
2022-10-27T15:51:08.813Z,96.00
2022-10-27T15:53:38.612Z,96.20
2022-10-27T15:56:22.511Z,96.60
2022-10-27T15:59:15.723Z,97.00
2022-10-27T16:01:46.173Z,97.50
2022-10-27T16:04:30.217Z,97.80
2022-10-27T16:07:17.311Z,98.00
2022-10-27T16:09:45.684Z,98.10
2022-10-27T16:12:14.150Z,98.00
2022-10-27T16:14:48.550Z,98.20
2022-10-27T16:17:19.501Z,98.40
2022-10-27T16:19:46.469Z,98.60
2022-10-27T16:22:18.704Z,98.70
2022-10-27T16:24:45.837Z,98.80
2022-10-27T16:27:23.205Z,98.90
2022-10-27T16:29:58.696Z,98.90
2022-10-27T16:32:30.673Z,99.00
2022-10-27T16:34:58.227Z,99.30
2022-10-27T16:37:26.980Z,99.60
2022-10-27T16:39:53.900Z,99.90
2022-10-27T16:42:21.355Z,99.90
2022-10-27T16:47:23.263Z,99.90
2022-10-27T16:49:51.520Z,99.90
2022-10-27T16:52:18.256Z,99.90
2022-10-27T16:54:44.951Z,99.90
2022-10-27T16:57:11.816Z,99.90
2022-10-27T16:59:38.717Z,99.90
2022-10-27T17:02:05.452Z,99.90
2022-10-27T17:04:33.263Z,99.90
2022-10-27T17:07:00.091Z,99.90
2022-10-27T17:09:27.007Z,99.90
2022-10-27T17:11:53.807Z,99.90
2022-10-27T17:14:20.600Z,99.90
2022-10-27T17:16:49.615Z,99.90
2022-10-27T17:19:16.428Z,99.90
2022-10-27T17:21:43.145Z,99.90
2022-10-27T17:24:10.225Z,99.90
2022-10-27T17:26:37.009Z,99.90
2022-10-27T17:29:05.366Z,99.90
2022-10-27T17:31:32.412Z,99.90
2022-10-27T17:34:00.060Z,99.90
2022-10-27T17:36:28.648Z,99.90
2022-10-27T17:38:55.898Z,99.90
2022-10-27T17:41:22.730Z,99.90
2022-10-27T17:43:50.236Z,99.90
2022-10-27T17:46:18.231Z,99.90
2022-10-27T17:48:53.669Z,99.90
2022-10-27T17:51:23.411Z,99.90
2022-10-27T17:53:51.280Z,99.90
2022-10-27T17:56:21.595Z,99.90
2022-10-27T17:58:49.551Z,99.90
2022-10-27T18:01:21.747Z,99.90
2022-10-27T18:03:51.141Z,99.90
2022-10-27T18:06:23.662Z,99.90
2022-10-27T18:08:53.928Z,99.90
2022-10-27T18:11:23.386Z,99.90
2022-10-27T18:13:51.381Z,99.90
2022-10-27T18:39:08.143Z,99.90
2022-10-27T18:41:36.497Z,99.90
2022-10-27T18:44:04.483Z,99.90
2022-10-27T18:46:31.458Z,99.90
2022-10-27T18:49:00.082Z,99.90
2022-10-27T18:51:29.823Z,99.90
2022-10-27T18:53:59.630Z,99.90
2022-10-27T18:56:26.933Z,99.90
2022-10-27T18:58:55.573Z,99.90
2022-10-27T19:01:23.234Z,99.90
2022-10-27T19:03:53.160Z,99.90
2022-10-27T19:06:20.302Z,99.90
2022-10-27T19:08:47.023Z,99.90
2022-10-27T19:11:15.611Z,99.90
2022-10-27T19:13:42.720Z,99.90
2022-10-27T19:16:15.664Z,99.90
2022-10-27T19:18:43.102Z,99.90
2022-10-27T19:21:16.384Z,99.90
2022-10-27T19:23:44.371Z,99.90
2022-10-27T19:26:17.657Z,99.90
2022-10-27T19:28:46.284Z,99.90
2022-10-27T19:31:18.943Z,99.90
2022-10-27T19:33:46.758Z,99.90
2022-10-27T19:36:18.512Z,99.90
2022-10-27T19:38:45.504Z,99.90
2022-10-27T19:41:21.730Z,99.90
2022-10-27T19:43:51.038Z,99.90
2022-10-27T19:46:18.597Z,99.90
2022-10-27T19:48:57.069Z,99.90
2022-10-27T19:51:26.418Z,99.90
2022-10-27T19:53:56.744Z,99.90
2022-10-27T19:56:25.726Z,99.90
2022-10-27T19:58:54.598Z,99.90
2022-10-27T20:01:23.926Z,99.90
2022-10-27T20:03:51.508Z,99.90
2022-10-27T20:06:18.786Z,99.90
2022-10-27T20:08:46.296Z,99.90
2022-10-27T20:11:19.235Z,99.90
2022-10-27T20:13:48.367Z,99.90
2022-10-27T20:16:21.222Z,99.90
2022-10-27T20:18:48.331Z,99.90
2022-10-27T20:21:15.819Z,99.90
2022-10-27T20:23:44.315Z,99.90
2022-10-27T20:26:29.998Z,99.90
2022-10-27T20:28:58.813Z,99.90
2022-10-27T20:31:26.283Z,99.90
2022-10-27T20:33:53.317Z,99.90
2022-10-27T20:36:20.439Z,99.90
2022-10-27T20:38:47.316Z,99.90
2022-10-27T20:41:19.294Z,99.90
2022-10-27T20:43:46.105Z,99.90
2022-10-27T20:46:13.059Z,99.90
2022-10-27T20:48:40.767Z,99.90
2022-10-27T20:51:15.250Z,99.90
2022-10-27T20:53:42.670Z,99.90
2022-10-27T20:56:17.636Z,99.90
2022-10-27T20:58:45.309Z,99.90
2022-10-27T21:01:32.734Z,99.90
2022-10-27T21:04:02.904Z,99.90
2022-10-27T21:06:35.050Z,99.90
2022-10-27T21:09:04.680Z,99.90
2022-10-27T21:11:32.217Z,99.90
2022-10-27T21:14:00.900Z,99.90
2022-10-27T21:16:28.339Z,99.90
2022-10-27T21:18:57.016Z,99.90
2022-10-27T21:21:25.655Z,99.90
2022-10-27T21:23:53.027Z,99.90
2022-10-27T21:26:21.493Z,99.90
2022-10-27T21:28:52.649Z,99.90
2022-10-27T21:31:21.181Z,99.90
2022-10-27T21:33:48.145Z,99.90
2022-10-27T21:36:14.969Z,99.90
2022-10-27T21:38:46.908Z,99.90
2022-10-27T21:41:16.014Z,99.90
2022-10-27T21:43:45.105Z,99.90
2022-10-27T21:46:13.853Z,99.90
2022-10-27T21:48:40.903Z,99.90
2022-10-27T21:51:07.747Z,99.90
2022-10-27T21:53:34.556Z,99.90
2022-10-27T21:56:04.878Z,99.90
2022-10-27T21:58:32.980Z,99.90
2022-10-27T22:01:08.932Z,99.90
2022-10-27T22:03:36.217Z,99.90
2022-10-27T22:06:04.454Z,99.90
2022-10-27T22:08:31.923Z,99.90
2022-10-27T22:11:06.511Z,99.90
2022-10-27T22:13:33.949Z,99.90
2022-10-27T22:16:09.056Z,99.90
2022-10-27T22:18:36.046Z,99.90
2022-10-27T22:21:03.480Z,99.90
2022-10-27T22:23:30.460Z,99.90
2022-10-27T22:26:17.990Z,99.90
2022-10-27T22:28:45.969Z,99.90
2022-10-27T22:31:24.242Z,99.90
2022-10-27T22:33:51.608Z,99.90
2022-10-27T22:36:20.268Z,99.90
2022-10-27T22:38:51.193Z,99.90
2022-10-27T22:41:17.859Z,99.90
2022-10-27T22:43:44.766Z,99.90
2022-10-27T22:46:23.120Z,99.90
2022-10-27T22:48:50.116Z,99.90
2022-10-27T22:51:18.818Z,99.90
2022-10-27T22:53:46.141Z,99.90
2022-10-27T22:56:15.666Z,99.90
2022-10-27T22:58:43.269Z,99.90
2022-10-27T23:01:19.613Z,99.90
2022-10-27T23:03:50.199Z,99.90
2022-10-27T23:06:16.859Z,99.90
2022-10-27T23:08:43.518Z,99.90
2022-10-27T23:11:10.171Z,99.90
2022-10-27T23:13:37.927Z,99.90
2022-10-27T23:16:08.960Z,99.90
2022-10-27T23:18:37.559Z,99.90
2022-10-27T23:21:06.683Z,99.90
2022-10-27T23:23:34.264Z,99.90
2022-10-27T23:26:01.599Z,99.90
2022-10-27T23:28:29.023Z,99.90
2022-10-27T23:30:55.980Z,99.90
2022-10-27T23:33:22.844Z,99.90
2022-10-27T23:36:00.688Z,99.90
2022-10-27T23:38:28.639Z,99.90
2022-10-27T23:40:57.711Z,99.90
2022-10-27T23:43:26.932Z,99.90
2022-10-27T23:46:02.204Z,99.90
2022-10-27T23:48:30.726Z,99.90
2022-10-27T23:50:58.145Z,99.90
2022-10-27T23:53:25.755Z,99.90
2022-10-27T23:55:57.553Z,99.90
2022-10-27T23:58:24.431Z,99.90
